Winsor, Minnesota
Current Conditions -  °F | °C
As of 9:55 AM on Saturday 20 Dec 2014 (Local Time) from KFSE Reporting Station
Haze Haze  
Wind Chill: 17°   Ceiling: 400
Heat Index: 27°   Visibility: 1.5mi
Dew Point: 27°   Wind: 9mph
Humidity: 100%   Direction: 190°S
Pressure: 30.02"   Gusts: NA
Location:  47.8469°N, 95.4815°W
Report Text: KFSE 201555Z AUTO 19008KT 1 1/2SM BR OVC004 M03/M03 A3002 RMK AO2
Loading
Personal Weather Stations






























Interactive Weather Map New forecast layout! Learn more

10-Day Weather Forecast

Advertisements
Track Severe Weather on mobile